WetterOnline ( https://www.wetteronline.at )

Wetter aktuell Würzburg

Aktuelles Wetter: Würzburg (272m)

6-stündlich | Neueste Meldungen
Ortszeit Temperatur Wetter
Di, 17.09. 14:00 19.5° C leicht bewölkt
Di, 17.09. 8:00 14.2° C bedeckt
Di, 17.09. 2:00 17.0° C bedeckt
Mo, 16.09. 20:00 20.3° C bedeckt
Mo, 16.09. 14:00 23.2° C bedeckt
Mo, 16.09. 8:00 10.6° C bedeckt
Mo, 16.09. 2:00 14.5° C -
So, 15.09. 20:00 22.4° C leicht bewölkt
Ortszeit Temperatur Wetter
Di, 17.09. 16:00 19.0° C leicht bewölkt
Di, 17.09. 15:50 19.0° C wolkig
Di, 17.09. 15:40 19.0° C wolkig
Di, 17.09. 15:30 19.8° C wolkig
Di, 17.09. 15:20 19.8° C wolkig
Di, 17.09. 15:10 19.5° C wolkig
Di, 17.09. 15:00 19.7° C leicht bewölkt
Di, 17.09. 14:30 19.8° C wolkig
Di, 17.09. 14:00 19.5° C leicht bewölkt
Di, 17.09. 13:30 19.0° C wolkig
Di, 17.09. 13:00 18.7° C leicht bewölkt
Ortszeit Relative Feuchte Sichtweite
Di, 17.09. 14:00 42% 50 km
Di, 17.09. 8:00 72% 65 km
Di, 17.09. 2:00 73% 40 km
Mo, 16.09. 20:00 45% 70 km
Mo, 16.09. 14:00 37% 70 km
Mo, 16.09. 8:00 87% 28 km
Mo, 16.09. 2:00 73% 55 km
So, 15.09. 20:00 42% 70 km
Ortszeit Relative Feuchte Sichtweite
Di, 17.09. 16:00 43% 45 km
Di, 17.09. 15:50 43% -
Di, 17.09. 15:40 42% -
Di, 17.09. 15:30 41% 40 km
Di, 17.09. 15:20 41% -
Di, 17.09. 15:10 41% -
Di, 17.09. 15:00 41% 35 km
Di, 17.09. 14:30 41% 35 km
Di, 17.09. 14:00 42% 50 km
Di, 17.09. 13:30 41% 40 km
Di, 17.09. 13:00 42% 40 km
Ortszeit Niederschlagsmenge Niederschlagsart
Di, 17.09. 14:00 0.1 l/m2 in 6 Std. Sprühregen
Di, 17.09. 8:00 0.1 l/m2 in 12 Std. Sprühregen
Di, 17.09. 2:00 0.1 l/m2 in 6 Std. Regen
Mo, 16.09. 20:00 0.1 l/m2 in 12 Std. Regen
Mo, 16.09. 14:00 0.0 l/m2 in 6 Std. -
Mo, 16.09. 8:00 0.0 l/m2 in 12 Std. -
Mo, 16.09. 2:00 0.0 l/m2 in 6 Std. -
So, 15.09. 20:00 0.0 l/m2 in 12 Std. -
Ortszeit Niederschlagsmenge Niederschlagsart
Di, 17.09. 16:00 0.0 l/m2 in 1 Std. -
Di, 17.09. 15:50 keine Meldung -
Di, 17.09. 15:40 keine Meldung -
Di, 17.09. 15:30 0.0 l/m2 in 1 Std. -
Di, 17.09. 15:20 keine Meldung -
Di, 17.09. 15:10 keine Meldung -
Di, 17.09. 15:00 0.0 l/m2 in 1 Std. -
Di, 17.09. 14:30 0.0 l/m2 in 1 Std. -
Di, 17.09. 14:00 0.0 l/m2 in 1 Std. Sprühregen
Di, 17.09. 13:30 0.0 l/m2 in 1 Std. -
Di, 17.09. 13:00 0.0 l/m2 in 1 Std. -
Ortszeit Stärke Spitze Richtung
km/h Bft. km/h Grad Sektor
Di, 17.09. 14:00 22 4 40 290° W
Di, 17.09. 8:00 4 1 25 30° NO
Di, 17.09. 2:00 7 2 25 10° N
Mo, 16.09. 20:00 7 2 25 320° NW
Mo, 16.09. 14:00 13 3 19 300° NW
Mo, 16.09. 8:00 4 1 14 350° N
Mo, 16.09. 2:00 2 1 13 340° N
So, 15.09. 20:00 9 2 31 10° N
Ortszeit Stärke Spitze Richtung
km/h Bft. km/h Grad Sektor
Di, 17.09. 16:00 14 3 32 330° NW
Di, 17.09. 15:50 14 3 - 330° NW
Di, 17.09. 15:40 20 4 - 330° NW
Di, 17.09. 15:30 14 3 32 320° NW
Di, 17.09. 15:20 14 3 - 320° NW
Di, 17.09. 15:10 18 3 - 310° NW
Di, 17.09. 15:00 17 3 33 320° NW
Di, 17.09. 14:30 22 4 36 300° NW
Di, 17.09. 14:00 22 4 40 290° W
Di, 17.09. 13:30 22 4 40 320° NW
Di, 17.09. 13:00 18 3 32 320° NW
Ortszeit Untergrenze Bedeckung Gattung
total tief tief mittel hoch
Di, 17.09. 14:00 9000 m 7/8 0/8 - - -
Di, 17.09. 8:00 540 m 8/8 8/8 - - -
Di, 17.09. 2:00 570 m 8/8 8/8 - - -
Mo, 16.09. 20:00 1500 m 8/8 8/8 - - -
Mo, 16.09. 14:00 3900 m 8/8 8/8 - - -
Mo, 16.09. 8:00 5400 m 8/8 8/8 - - -
Mo, 16.09. 2:00 - - - - - -
So, 15.09. 20:00 12000 m 3/8 0/8 - - -
Ortszeit Bedeckungsgrad in Achtel und Wolkenuntergrenze
Di, 17.09. 16:00 7(9000m) 8(9000m)
Di, 17.09. 15:50 7(9000m) 8(9000m)
Di, 17.09. 15:40 6(9000m) 8(9000m)
Di, 17.09. 15:30 6(9000m) 8(9000m)
Di, 17.09. 15:20 6(9000m) 8(9000m)
Di, 17.09. 15:10 7(9000m)
Di, 17.09. 15:00 7(8700m) 7(8700m) 8(9000m)
Di, 17.09. 14:30 3(9000m) 7(9000m)
Di, 17.09. 14:00 7(9000m) 7(9000m) 6(9000m)
Di, 17.09. 13:30 8(9000m) 7(9000m)
Di, 17.09. 13:00 8(9000m) 8(10500m)
Ortszeit Luftdruck NN (hPa) Tendenz (hPa in 3 Std.)
Di, 17.09. 14:00 1019 - 1,0
Di, 17.09. 8:00 1020 + 0,6
Di, 17.09. 2:00 1019 + 0,1
Mo, 16.09. 20:00 1018 - 0,1
Mo, 16.09. 14:00 1019 - 1,5
Mo, 16.09. 8:00 1022 + 0,1
Mo, 16.09. 2:00 1022 - 0,3
So, 15.09. 20:00 1021 - 0,2
Ortszeit Luftdruck NN (hPa) Tendenz (hPa in 3 Std.)
Di, 17.09. 16:00 1018 - 0,9
Di, 17.09. 15:50 1018 keine Meldung
Di, 17.09. 15:40 1018 keine Meldung
Di, 17.09. 15:30 1018 - 1,1
Di, 17.09. 15:20 1018 keine Meldung
Di, 17.09. 15:10 1019 keine Meldung
Di, 17.09. 15:00 1019 - 1,1
Di, 17.09. 14:30 1019 - 1,1
Di, 17.09. 14:00 1019 - 1,0
Di, 17.09. 13:30 1019 - 0,9
Di, 17.09. 13:00 1019 - 0,8
Ortszeit Schneehöhe (cm)
Di, 17.09. 14:00 -
Di, 17.09. 8:00 -
Di, 17.09. 2:00 -
Mo, 16.09. 20:00 -
Mo, 16.09. 14:00 -
Mo, 16.09. 8:00 -
Mo, 16.09. 2:00 -
So, 15.09. 20:00 -
Ortszeit Schneehöhe (cm)
Di, 17.09. 16:00 -
Di, 17.09. 15:50 -
Di, 17.09. 15:40 -
Di, 17.09. 15:30 -
Di, 17.09. 15:20 -
Di, 17.09. 15:10 -
Di, 17.09. 15:00 -
Di, 17.09. 14:30 -
Di, 17.09. 14:00 -
Di, 17.09. 13:30 -
Di, 17.09. 13:00 -
Link zu dieser Seite / Seite empfehlen

Das Wetter in ...